Riverside, Iowa
Current Conditions -  °F | °C
As of 3:52 AM on Saturday 01 Nov 2014 (Local Time) from KIOW Reporting Station
Clear Clear  
Wind Chill: 22°   Ceiling: Unl
Heat Index: 27°   Visibility: 10mi
Dew Point: 20°   Wind: 5mph
Humidity: 75%   Direction: 10°N
Pressure: 30.48"   Gusts: NA
Location:  41.48°N, 91.58°W
Report Text: KIOW 010852Z AUTO 01004KT 10SM CLR M03/M07 A3048 RMK AO2 SLP329 T10281067 58002
Loading
Personal Weather Stations






























Interactive Weather Map
Tropical Storm Tracking
New forecast layout! Learn more

10-Day Weather Forecast

Advertisements
Track Severe Weather on mobile